sensor_id;sensor_type;location;lat;lon;timestamp;temperature;humidity
1091;DHT22;534;48.704;9.122;2022-11-20T04:02:20;6.00;88.10
1091;DHT22;534;48.704;9.122;2022-11-20T04:04:47;5.90;88.60
1091;DHT22;534;48.704;9.122;2022-11-20T04:07:13;5.80;89.00
1091;DHT22;534;48.704;9.122;2022-11-20T04:09:40;5.70;89.30
1091;DHT22;534;48.704;9.122;2022-11-20T04:12:07;5.60;89.80
1091;DHT22;534;48.704;9.122;2022-11-20T04:14:34;5.60;90.20
1091;DHT22;534;48.704;9.122;2022-11-20T04:17:01;5.50;90.20
1091;DHT22;534;48.704;9.122;2022-11-20T04:19:29;5.30;90.60
1091;DHT22;534;48.704;9.122;2022-11-20T04:21:56;5.20;91.10
1091;DHT22;534;48.704;9.122;2022-11-20T04:24:22;5.20;91.70
1091;DHT22;534;48.704;9.122;2022-11-20T04:26:49;5.10;91.50
1091;DHT22;534;48.704;9.122;2022-11-20T04:29:16;5.20;92.00
1091;DHT22;534;48.704;9.122;2022-11-20T04:31:42;5.30;91.70
1091;DHT22;534;48.704;9.122;2022-11-20T04:34:11;5.30;91.50
1091;DHT22;534;48.704;9.122;2022-11-20T04:36:39;5.30;91.70
1091;DHT22;534;48.704;9.122;2022-11-20T04:39:06;5.30;91.50
1091;DHT22;534;48.704;9.122;2022-11-20T04:41:35;5.30;91.50
1091;DHT22;534;48.704;9.122;2022-11-20T04:44:04;5.40;91.60
1091;DHT22;534;48.704;9.122;2022-11-20T04:46:31;5.40;91.50
1091;DHT22;534;48.704;9.122;2022-11-20T04:48:59;5.40;91.50
1091;DHT22;534;48.704;9.122;2022-11-20T04:51:26;5.50;91.40
1091;DHT22;534;48.704;9.122;2022-11-20T04:53:54;5.50;91.00
1091;DHT22;534;48.704;9.122;2022-11-20T04:56:21;5.50;90.80
1091;DHT22;534;48.704;9.122;2022-11-20T04:58:48;5.60;90.90
1091;DHT22;534;48.704;9.122;2022-11-20T05:01:19;5.40;91.00
1091;DHT22;534;48.704;9.122;2022-11-20T05:03:46;5.40;91.80
1091;DHT22;534;48.704;9.122;2022-11-20T05:06:15;5.60;91.90
1091;DHT22;534;48.704;9.122;2022-11-20T05:08:42;5.70;91.50
1091;DHT22;534;48.704;9.122;2022-11-20T05:11:11;5.70;90.90
1091;DHT22;534;48.704;9.122;2022-11-20T05:13:38;5.70;91.10
1091;DHT22;534;48.704;9.122;2022-11-20T05:16:07;5.80;91.10
1091;DHT22;534;48.704;9.122;2022-11-20T05:18:34;5.80;91.10
1091;DHT22;534;48.704;9.122;2022-11-20T05:21:01;5.70;90.90
1091;DHT22;534;48.704;9.122;2022-11-20T05:23:30;5.70;91.20
1091;DHT22;534;48.704;9.122;2022-11-20T05:25:57;5.80;91.10
1091;DHT22;534;48.704;9.122;2022-11-20T05:28:26;5.80;91.10
1091;DHT22;534;48.704;9.122;2022-11-20T05:30:52;5.80;91.60
1091;DHT22;534;48.704;9.122;2022-11-20T05:33:19;5.80;91.80
1091;DHT22;534;48.704;9.122;2022-11-20T05:35:46;5.90;91.10
1091;DHT22;534;48.704;9.122;2022-11-20T05:38:13;5.90;91.30
1091;DHT22;534;48.704;9.122;2022-11-20T05:40:40;5.90;90.90
1091;DHT22;534;48.704;9.122;2022-11-20T05:43:07;6.00;90.80
1091;DHT22;534;48.704;9.122;2022-11-20T05:45:35;5.90;90.90
1091;DHT22;534;48.704;9.122;2022-11-20T05:48:02;5.90;91.00
1091;DHT22;534;48.704;9.122;2022-11-20T05:50:29;5.80;91.50
1091;DHT22;534;48.704;9.122;2022-11-20T05:52:57;5.80;91.70
1091;DHT22;534;48.704;9.122;2022-11-20T05:55:24;5.90;91.10
1091;DHT22;534;48.704;9.122;2022-11-20T05:57:52;6.10;90.90
1091;DHT22;534;48.704;9.122;2022-11-20T06:00:19;5.90;90.20
1091;DHT22;534;48.704;9.122;2022-11-20T06:02:47;5.90;91.30
1091;DHT22;534;48.704;9.122;2022-11-20T06:05:14;5.90;91.00
1091;DHT22;534;48.704;9.122;2022-11-20T06:07:40;6.10;91.10
1091;DHT22;534;48.704;9.122;2022-11-20T06:10:08;6.30;90.10
1091;DHT22;534;48.704;9.122;2022-11-20T06:12:35;6.40;89.90
1091;DHT22;534;48.704;9.122;2022-11-20T06:15:01;6.40;89.20
1091;DHT22;534;48.704;9.122;2022-11-20T06:17:28;6.40;89.60
1091;DHT22;534;48.704;9.122;2022-11-20T06:19:56;6.40;89.80
1091;DHT22;534;48.704;9.122;2022-11-20T06:22:23;6.40;88.70
1091;DHT22;534;48.704;9.122;2022-11-20T06:24:49;6.50;88.90
1091;DHT22;534;48.704;9.122;2022-11-20T06:27:16;6.50;89.00
1091;DHT22;534;48.704;9.122;2022-11-20T06:29:43;6.30;88.70
1091;DHT22;534;48.704;9.122;2022-11-20T06:32:10;6.30;89.30
1091;DHT22;534;48.704;9.122;2022-11-20T06:34:37;6.30;89.20
1091;DHT22;534;48.704;9.122;2022-11-20T06:37:05;6.40;89.40
1091;DHT22;534;48.704;9.122;2022-11-20T06:39:32;6.50;89.20
1091;DHT22;534;48.704;9.122;2022-11-20T06:41:58;6.50;89.00
1091;DHT22;534;48.704;9.122;2022-11-20T06:44:25;6.60;88.90
1091;DHT22;534;48.704;9.122;2022-11-20T06:46:52;6.70;91.20
1091;DHT22;534;48.704;9.122;2022-11-20T06:49:19;6.80;90.00
1091;DHT22;534;48.704;9.122;2022-11-20T06:51:45;6.80;88.00
1091;DHT22;534;48.704;9.122;2022-11-20T06:54:13;6.50;87.70
1091;DHT22;534;48.704;9.122;2022-11-20T06:56:40;6.40;87.90
1091;DHT22;534;48.704;9.122;2022-11-20T06:59:07;6.40;88.90
1091;DHT22;534;48.704;9.122;2022-11-20T07:01:34;6.40;88.90
1091;DHT22;534;48.704;9.122;2022-11-20T07:04:01;6.40;89.00
1091;DHT22;534;48.704;9.122;2022-11-20T07:06:28;6.40;88.80
1091;DHT22;534;48.704;9.122;2022-11-20T07:08:55;6.40;89.10
1091;DHT22;534;48.704;9.122;2022-11-20T07:11:23;6.40;89.10
1091;DHT22;534;48.704;9.122;2022-11-20T07:13:50;6.40;88.90
1091;DHT22;534;48.704;9.122;2022-11-20T07:16:17;6.40;89.00
1091;DHT22;534;48.704;9.122;2022-11-20T07:18:43;6.40;89.10
1091;DHT22;534;48.704;9.122;2022-11-20T07:21:10;6.50;88.80
1091;DHT22;534;48.704;9.122;2022-11-20T07:23:37;6.50;89.10
1091;DHT22;534;48.704;9.122;2022-11-20T07:26:05;6.60;88.40
1091;DHT22;534;48.704;9.122;2022-11-20T07:28:33;6.40;88.90
1091;DHT22;534;48.704;9.122;2022-11-20T07:31:00;6.30;89.10
1091;DHT22;534;48.704;9.122;2022-11-20T07:33:27;6.40;89.70
1091;DHT22;534;48.704;9.122;2022-11-20T07:35:53;6.50;89.70
1091;DHT22;534;48.704;9.122;2022-11-20T07:38:20;6.40;88.90
1091;DHT22;534;48.704;9.122;2022-11-20T07:40:47;6.50;89.30
1091;DHT22;534;48.704;9.122;2022-11-20T07:43:14;6.60;89.00
1091;DHT22;534;48.704;9.122;2022-11-20T07:45:42;6.60;88.70
1091;DHT22;534;48.704;9.122;2022-11-20T07:48:09;6.60;88.80
1091;DHT22;534;48.704;9.122;2022-11-20T07:50:35;6.70;88.30
1091;DHT22;534;48.704;9.122;2022-11-20T07:53:03;6.90;88.40
1091;DHT22;534;48.704;9.122;2022-11-20T07:55:30;7.90;86.40
1091;DHT22;534;48.704;9.122;2022-11-20T07:57:57;8.10;83.40
1091;DHT22;534;48.704;9.122;2022-11-20T08:00:24;8.10;83.00
1091;DHT22;534;48.704;9.122;2022-11-20T08:02:53;7.90;83.90
1091;DHT22;534;48.704;9.122;2022-11-20T08:05:19;7.70;84.10
1091;DHT22;534;48.704;9.122;2022-11-20T08:07:46;7.40;85.00
1091;DHT22;534;48.704;9.122;2022-11-20T08:10:15;7.20;85.80
1091;DHT22;534;48.704;9.122;2022-11-20T08:12:46;7.10;86.40
1091;DHT22;534;48.704;9.122;2022-11-20T08:15:31;7.10;87.20
1091;DHT22;534;48.704;9.122;2022-11-20T08:18:04;7.10;87.50
1091;DHT22;534;48.704;9.122;2022-11-20T08:20:31;7.10;88.00
1091;DHT22;534;48.704;9.122;2022-11-20T08:22:58;7.10;88.00
1091;DHT22;534;48.704;9.122;2022-11-20T08:25:26;7.10;87.60
1091;DHT22;534;48.704;9.122;2022-11-20T08:27:53;7.10;88.00
1091;DHT22;534;48.704;9.122;2022-11-20T08:30:19;7.00;88.30
1091;DHT22;534;48.704;9.122;2022-11-20T08:32:46;6.90;88.50
1091;DHT22;534;48.704;9.122;2022-11-20T08:35:14;6.80;88.90
1091;DHT22;534;48.704;9.122;2022-11-20T08:37:41;6.80;89.50
1091;DHT22;534;48.704;9.122;2022-11-20T08:40:09;6.80;89.80
1091;DHT22;534;48.704;9.122;2022-11-20T08:42:37;7.00;89.70
1091;DHT22;534;48.704;9.122;2022-11-20T08:45:04;7.00;89.30
1091;DHT22;534;48.704;9.122;2022-11-20T08:47:31;6.90;89.30
1091;DHT22;534;48.704;9.122;2022-11-20T08:49:57;7.00;89.70
1091;DHT22;534;48.704;9.122;2022-11-20T08:52:26;7.00;89.40
1091;DHT22;534;48.704;9.122;2022-11-20T08:54:53;7.10;89.00
1091;DHT22;534;48.704;9.122;2022-11-20T08:57:19;7.10;88.80
1091;DHT22;534;48.704;9.122;2022-11-20T08:59:46;7.30;89.00
1091;DHT22;534;48.704;9.122;2022-11-20T09:02:13;7.40;88.80
1091;DHT22;534;48.704;9.122;2022-11-20T09:04:40;7.50;88.30
1091;DHT22;534;48.704;9.122;2022-11-20T09:07:07;7.50;87.90
1091;DHT22;534;48.704;9.122;2022-11-20T09:09:35;7.50;88.30
1091;DHT22;534;48.704;9.122;2022-11-20T09:12:02;7.50;88.30
1091;DHT22;534;48.704;9.122;2022-11-20T09:14:29;7.60;87.40
1091;DHT22;534;48.704;9.122;2022-11-20T09:16:55;7.50;87.60
1091;DHT22;534;48.704;9.122;2022-11-20T09:19:23;7.40;88.80
1091;DHT22;534;48.704;9.122;2022-11-20T09:21:50;7.30;88.50
1091;DHT22;534;48.704;9.122;2022-11-20T09:24:17;7.40;89.00
1091;DHT22;534;48.704;9.122;2022-11-20T09:26:45;7.40;88.70
1091;DHT22;534;48.704;9.122;2022-11-20T09:29:11;7.30;88.40
1091;DHT22;534;48.704;9.122;2022-11-20T09:31:38;7.30;89.20
1091;DHT22;534;48.704;9.122;2022-11-20T09:34:05;7.40;89.60
1091;DHT22;534;48.704;9.122;2022-11-20T09:36:31;7.50;88.60
1091;DHT22;534;48.704;9.122;2022-11-20T09:38:58;7.60;88.00
1091;DHT22;534;48.704;9.122;2022-11-20T09:41:36;7.60;88.10
1091;DHT22;534;48.704;9.122;2022-11-20T09:44:17;7.60;87.10
1091;DHT22;534;48.704;9.122;2022-11-20T09:46:54;7.40;87.50
1091;DHT22;534;48.704;9.122;2022-11-20T09:49:27;7.40;88.20
1091;DHT22;534;48.704;9.122;2022-11-20T09:51:58;7.40;88.20
1091;DHT22;534;48.704;9.122;2022-11-20T09:54:29;7.30;88.40
1091;DHT22;534;48.704;9.122;2022-11-20T09:56:59;7.30;88.40
1091;DHT22;534;48.704;9.122;2022-11-20T09:59:33;7.40;88.40
1091;DHT22;534;48.704;9.122;2022-11-20T10:02:08;7.40;88.30
1091;DHT22;534;48.704;9.122;2022-11-20T10:04:43;7.40;87.70
1091;DHT22;534;48.704;9.122;2022-11-20T10:07:14;7.30;87.80
1091;DHT22;534;48.704;9.122;2022-11-20T10:09:50;7.30;88.40
1091;DHT22;534;48.704;9.122;2022-11-20T10:12:24;7.40;87.80
1091;DHT22;534;48.704;9.122;2022-11-20T10:15:05;7.50;88.00
1091;DHT22;534;48.704;9.122;2022-11-20T10:17:54;7.50;87.50
1091;DHT22;534;48.704;9.122;2022-11-20T10:20:29;7.60;88.40
1091;DHT22;534;48.704;9.122;2022-11-20T10:23:16;7.70;88.10
1091;DHT22;534;48.704;9.122;2022-11-20T10:25:56;7.70;87.80
1091;DHT22;534;48.704;9.122;2022-11-20T10:28:34;7.60;87.70
1091;DHT22;534;48.704;9.122;2022-11-20T10:31:12;7.60;88.80
1091;DHT22;534;48.704;9.122;2022-11-20T10:33:42;7.60;89.00
1091;DHT22;534;48.704;9.122;2022-11-20T10:36:15;7.60;89.20
1091;DHT22;534;48.704;9.122;2022-11-20T10:38:46;7.60;89.80
1091;DHT22;534;48.704;9.122;2022-11-20T10:41:21;7.60;89.50
1091;DHT22;534;48.704;9.122;2022-11-20T10:43:56;7.70;90.30
1091;DHT22;534;48.704;9.122;2022-11-20T10:46:37;7.80;90.70
1091;DHT22;534;48.704;9.122;2022-11-20T10:49:11;7.90;90.10
1091;DHT22;534;48.704;9.122;2022-11-20T10:51:48;7.90;89.70
1091;DHT22;534;48.704;9.122;2022-11-20T10:54:22;8.00;89.70
1091;DHT22;534;48.704;9.122;2022-11-20T10:56:54;7.90;89.30
1091;DHT22;534;48.704;9.122;2022-11-20T11:02:22;7.80;89.50
1091;DHT22;534;48.704;9.122;2022-11-20T11:04:50;7.80;90.40
1091;DHT22;534;48.704;9.122;2022-11-20T11:07:20;7.90;90.10
1091;DHT22;534;48.704;9.122;2022-11-20T11:09:49;7.70;89.50
1091;DHT22;534;48.704;9.122;2022-11-20T11:12:16;7.80;90.70
1091;DHT22;534;48.704;9.122;2022-11-20T11:14:46;7.90;90.60
1091;DHT22;534;48.704;9.122;2022-11-20T11:17:31;8.00;90.10
1091;DHT22;534;48.704;9.122;2022-11-20T11:20:00;8.00;89.50
1091;DHT22;534;48.704;9.122;2022-11-20T11:22:28;8.10;90.10
1091;DHT22;534;48.704;9.122;2022-11-20T11:24:55;8.20;88.70
1091;DHT22;534;48.704;9.122;2022-11-20T11:27:22;8.10;88.80
1091;DHT22;534;48.704;9.122;2022-11-20T11:29:49;8.00;89.30
1091;DHT22;534;48.704;9.122;2022-11-20T11:32:18;7.80;89.30
1091;DHT22;534;48.704;9.122;2022-11-20T11:34:58;8.00;89.50
1091;DHT22;534;48.704;9.122;2022-11-20T11:37:32;7.90;88.40
1091;DHT22;534;48.704;9.122;2022-11-20T11:39:59;8.10;88.70
1091;DHT22;534;48.704;9.122;2022-11-20T11:42:27;8.30;88.00
1091;DHT22;534;48.704;9.122;2022-11-20T11:44:56;8.50;86.90
1091;DHT22;534;48.704;9.122;2022-11-20T11:47:33;8.70;86.40
1091;DHT22;534;48.704;9.122;2022-11-20T11:50:17;8.80;84.90
1091;DHT22;534;48.704;9.122;2022-11-20T11:52:48;9.00;84.50
1091;DHT22;534;48.704;9.122;2022-11-20T11:55:27;9.50;85.20
1091;DHT22;534;48.704;9.122;2022-11-20T11:58:06;10.00;82.30
1091;DHT22;534;48.704;9.122;2022-11-20T12:00:35;10.90;79.60
1091;DHT22;534;48.704;9.122;2022-11-20T12:03:15;11.40;77.30
1091;DHT22;534;48.704;9.122;2022-11-20T12:05:48;12.70;74.90
1091;DHT22;534;48.704;9.122;2022-11-20T12:08:21;14.10;68.40
1091;DHT22;534;48.704;9.122;2022-11-20T12:10:55;14.50;64.20
1091;DHT22;534;48.704;9.122;2022-11-20T12:13:32;15.40;62.70
1091;DHT22;534;48.704;9.122;2022-11-20T12:16:02;17.50;58.00
1091;DHT22;534;48.704;9.122;2022-11-20T12:18:33;20.30;52.30
1091;DHT22;534;48.704;9.122;2022-11-20T12:21:10;22.30;47.40
1091;DHT22;534;48.704;9.122;2022-11-20T12:23:58;23.50;44.90
1091;DHT22;534;48.704;9.122;2022-11-20T12:26:42;22.50;44.10
1091;DHT22;534;48.704;9.122;2022-11-20T12:29:18;19.80;47.70
1091;DHT22;534;48.704;9.122;2022-11-20T12:32:01;17.60;52.20
1091;DHT22;534;48.704;9.122;2022-11-20T12:34:40;15.90;56.50
1091;DHT22;534;48.704;9.122;2022-11-20T12:37:16;14.30;58.50
1091;DHT22;534;48.704;9.122;2022-11-20T12:39:48;13.20;61.80
1091;DHT22;534;48.704;9.122;2022-11-20T12:42:24;11.90;65.60
1091;DHT22;534;48.704;9.122;2022-11-20T12:45:25;11.40;68.30
1091;DHT22;534;48.704;9.122;2022-11-20T12:48:20;11.00;70.20
1091;DHT22;534;48.704;9.122;2022-11-20T12:50:59;11.60;69.50
1091;DHT22;534;48.704;9.122;2022-11-20T12:53:39;12.60;65.70
1091;DHT22;534;48.704;9.122;2022-11-20T12:56:21;13.10;62.90
1091;DHT22;534;48.704;9.122;2022-11-20T12:58:59;13.50;62.90
1091;DHT22;534;48.704;9.122;2022-11-20T13:01:34;13.70;62.20
1091;DHT22;534;48.704;9.122;2022-11-20T13:04:19;15.20;60.80
1091;DHT22;534;48.704;9.122;2022-11-20T13:06:50;17.80;54.10
1091;DHT22;534;48.704;9.122;2022-11-20T13:09:20;18.40;49.30
1091;DHT22;534;48.704;9.122;2022-11-20T13:11:52;19.50;48.50
1091;DHT22;534;48.704;9.122;2022-11-20T13:14:47;17.90;49.20
1091;DHT22;534;48.704;9.122;2022-11-20T13:17:20;17.20;51.70
1091;DHT22;534;48.704;9.122;2022-11-20T13:19:52;18.30;48.70
1091;DHT22;534;48.704;9.122;2022-11-20T13:22:25;17.70;49.50
1091;DHT22;534;48.704;9.122;2022-11-20T13:24:53;17.20;50.60
1091;DHT22;534;48.704;9.122;2022-11-20T13:27:21;18.70;49.10
1091;DHT22;534;48.704;9.122;2022-11-20T13:30:00;18.80;49.20
1091;DHT22;534;48.704;9.122;2022-11-20T13:32:28;17.90;49.70
1091;DHT22;534;48.704;9.122;2022-11-20T13:34:59;18.80;49.40
1091;DHT22;534;48.704;9.122;2022-11-20T13:37:30;19.40;47.20
1091;DHT22;534;48.704;9.122;2022-11-20T13:40:20;20.40;45.80
1091;DHT22;534;48.704;9.122;2022-11-20T13:42:55;21.70;44.00
1091;DHT22;534;48.704;9.122;2022-11-20T13:45:25;22.40;41.30
1091;DHT22;534;48.704;9.122;2022-11-20T13:47:53;20.00;44.00
1091;DHT22;534;48.704;9.122;2022-11-20T13:50:26;18.70;46.90
1091;DHT22;534;48.704;9.122;2022-11-20T13:53:08;17.00;49.90
1091;DHT22;534;48.704;9.122;2022-11-20T13:55:44;15.70;53.50
1091;DHT22;534;48.704;9.122;2022-11-20T13:58:27;15.10;55.80
1091;DHT22;534;48.704;9.122;2022-11-20T14:01:06;14.70;56.00
1091;DHT22;534;48.704;9.122;2022-11-20T14:03:34;14.60;56.60
1091;DHT22;534;48.704;9.122;2022-11-20T14:06:03;14.50;56.60
1091;DHT22;534;48.704;9.122;2022-11-20T14:08:35;13.70;58.30
1091;DHT22;534;48.704;9.122;2022-11-20T14:11:14;13.80;58.10
1091;DHT22;534;48.704;9.122;2022-11-20T14:13:52;12.90;59.70
1091;DHT22;534;48.704;9.122;2022-11-20T14:16:20;12.40;61.10
1091;DHT22;534;48.704;9.122;2022-11-20T14:18:47;12.00;63.30
1091;DHT22;534;48.704;9.122;2022-11-20T14:21:22;11.40;63.30
1091;DHT22;534;48.704;9.122;2022-11-20T14:23:52;10.60;65.90
1091;DHT22;534;48.704;9.122;2022-11-20T14:26:21;10.30;68.30
1091;DHT22;534;48.704;9.122;2022-11-20T14:28:49;9.90;69.40
1091;DHT22;534;48.704;9.122;2022-11-20T14:31:22;9.70;70.70
1091;DHT22;534;48.704;9.122;2022-11-20T14:33:50;9.60;72.60
1091;DHT22;534;48.704;9.122;2022-11-20T14:36:20;9.60;72.80
1091;DHT22;534;48.704;9.122;2022-11-20T14:38:48;9.60;72.20
1091;DHT22;534;48.704;9.122;2022-11-20T14:41:18;9.60;72.60
1091;DHT22;534;48.704;9.122;2022-11-20T14:43:49;9.60;72.80
1091;DHT22;534;48.704;9.122;2022-11-20T14:46:17;9.40;74.70
1091;DHT22;534;48.704;9.122;2022-11-20T14:48:46;9.50;75.10
1091;DHT22;534;48.704;9.122;2022-11-20T14:51:32;9.50;74.60
1091;DHT22;534;48.704;9.122;2022-11-20T14:54:10;9.50;75.20
1091;DHT22;534;48.704;9.122;2022-11-20T14:56:37;9.50;75.70
1091;DHT22;534;48.704;9.122;2022-11-20T14:59:06;9.40;75.70
1091;DHT22;534;48.704;9.122;2022-11-20T15:01:34;9.30;76.40
1091;DHT22;534;48.704;9.122;2022-11-20T15:04:05;9.00;76.70
1091;DHT22;534;48.704;9.122;2022-11-20T15:06:33;8.70;77.60
1091;DHT22;534;48.704;9.122;2022-11-20T15:09:00;8.60;78.60
1091;DHT22;534;48.704;9.122;2022-11-20T15:11:30;8.50;79.00
1091;DHT22;534;48.704;9.122;2022-11-20T15:13:59;8.50;78.10
1091;DHT22;534;48.704;9.122;2022-11-20T15:16:29;8.30;78.30
1091;DHT22;534;48.704;9.122;2022-11-20T15:18:56;8.30;78.60
1091;DHT22;534;48.704;9.122;2022-11-20T15:21:23;8.30;78.70
1091;DHT22;534;48.704;9.122;2022-11-20T15:23:50;8.30;79.00
1091;DHT22;534;48.704;9.122;2022-11-20T15:26:22;8.20;79.10
1091;DHT22;534;48.704;9.122;2022-11-20T15:28:50;8.20;79.50
1091;DHT22;534;48.704;9.122;2022-11-20T15:31:18;8.20;79.40
1091;DHT22;534;48.704;9.122;2022-11-20T15:33:47;8.00;79.70
1091;DHT22;534;48.704;9.122;2022-11-20T15:36:14;7.90;80.20
1091;DHT22;534;48.704;9.122;2022-11-20T15:38:41;8.00;80.60
1091;DHT22;534;48.704;9.122;2022-11-20T15:41:08;7.80;81.30
1091;DHT22;534;48.704;9.122;2022-11-20T15:43:35;7.80;81.50
1091;DHT22;534;48.704;9.122;2022-11-20T15:46:04;7.90;81.60
1091;DHT22;534;48.704;9.122;2022-11-20T15:48:34;7.90;81.50
1091;DHT22;534;48.704;9.122;2022-11-20T15:51:06;8.10;81.40
1091;DHT22;534;48.704;9.122;2022-11-20T15:53:38;7.90;81.40
1091;DHT22;534;48.704;9.122;2022-11-20T15:56:06;7.80;82.00
1091;DHT22;534;48.704;9.122;2022-11-20T15:58:32;7.80;82.30
1091;DHT22;534;48.704;9.122;2022-11-20T16:00:59;7.80;82.30
1091;DHT22;534;48.704;9.122;2022-11-20T16:03:26;7.90;82.30
1091;DHT22;534;48.704;9.122;2022-11-20T16:05:53;7.90;82.20
1091;DHT22;534;48.704;9.122;2022-11-20T16:08:21;7.90;82.60
1091;DHT22;534;48.704;9.122;2022-11-20T16:10:48;8.00;82.40
1091;DHT22;534;48.704;9.122;2022-11-20T16:13:16;8.10;82.20
1091;DHT22;534;48.704;9.122;2022-11-20T16:16:03;8.10;81.70
1091;DHT22;534;48.704;9.122;2022-11-20T16:18:32;8.10;82.00
1091;DHT22;534;48.704;9.122;2022-11-20T16:20:58;8.20;81.70
1091;DHT22;534;48.704;9.122;2022-11-20T16:23:27;8.20;81.70
1091;DHT22;534;48.704;9.122;2022-11-20T16:25:53;8.10;81.80
1091;DHT22;534;48.704;9.122;2022-11-20T16:28:20;7.90;82.30
1091;DHT22;534;48.704;9.122;2022-11-20T16:30:47;7.90;82.50
1091;DHT22;534;48.704;9.122;2022-11-20T16:33:16;7.80;83.10
1091;DHT22;534;48.704;9.122;2022-11-20T16:35:43;7.80;83.10
1091;DHT22;534;48.704;9.122;2022-11-20T16:38:10;7.70;83.40
1091;DHT22;534;48.704;9.122;2022-11-20T16:40:38;7.80;83.80
1091;DHT22;534;48.704;9.122;2022-11-20T16:43:08;8.00;83.00
1091;DHT22;534;48.704;9.122;2022-11-20T16:45:40;7.90;82.90
1091;DHT22;534;48.704;9.122;2022-11-20T16:48:12;7.90;83.30
1091;DHT22;534;48.704;9.122;2022-11-20T16:50:45;7.80;82.80
1091;DHT22;534;48.704;9.122;2022-11-20T16:53:13;7.90;83.00
1091;DHT22;534;48.704;9.122;2022-11-20T16:55:41;7.80;83.10
1091;DHT22;534;48.704;9.122;2022-11-20T16:58:08;7.80;83.00
1091;DHT22;534;48.704;9.122;2022-11-20T17:00:35;7.60;83.30
1091;DHT22;534;48.704;9.122;2022-11-20T17:03:02;7.60;83.90
1091;DHT22;534;48.704;9.122;2022-11-20T17:05:29;7.60;83.80
1091;DHT22;534;48.704;9.122;2022-11-20T17:07:56;7.60;84.30
1091;DHT22;534;48.704;9.122;2022-11-20T17:10:22;7.70;84.10
1091;DHT22;534;48.704;9.122;2022-11-20T17:12:50;7.70;84.20
1091;DHT22;534;48.704;9.122;2022-11-20T17:15:17;7.60;84.00
1091;DHT22;534;48.704;9.122;2022-11-20T17:17:44;7.60;83.90
1091;DHT22;534;48.704;9.122;2022-11-20T17:20:11;7.50;83.30
1091;DHT22;534;48.704;9.122;2022-11-20T17:22:37;7.60;84.00
1091;DHT22;534;48.704;9.122;2022-11-20T17:25:04;7.60;83.00
1091;DHT22;534;48.704;9.122;2022-11-20T17:27:31;7.60;83.10
1091;DHT22;534;48.704;9.122;2022-11-20T17:29:59;7.50;83.60
1091;DHT22;534;48.704;9.122;2022-11-20T17:32:26;7.60;82.90
1091;DHT22;534;48.704;9.122;2022-11-20T17:34:53;7.50;82.90
1091;DHT22;534;48.704;9.122;2022-11-20T17:37:20;7.50;82.80
1091;DHT22;534;48.704;9.122;2022-11-20T17:39:47;7.40;82.70
1091;DHT22;534;48.704;9.122;2022-11-20T17:42:14;7.40;82.50
1091;DHT22;534;48.704;9.122;2022-11-20T17:44:54;7.50;82.60
1091;DHT22;534;48.704;9.122;2022-11-20T17:47:24;7.50;82.20
1091;DHT22;534;48.704;9.122;2022-11-20T17:49:51;7.50;81.70
1091;DHT22;534;48.704;9.122;2022-11-20T17:52:19;7.50;82.50
1091;DHT22;534;48.704;9.122;2022-11-20T17:54:46;7.50;81.70
1091;DHT22;534;48.704;9.122;2022-11-20T17:57:13;7.60;81.30
1091;DHT22;534;48.704;9.122;2022-11-20T17:59:57;7.50;81.40
1091;DHT22;534;48.704;9.122;2022-11-20T18:02:25;7.50;81.80
1091;DHT22;534;48.704;9.122;2022-11-20T18:04:52;7.60;81.80
1091;DHT22;534;48.704;9.122;2022-11-20T18:07:19;7.50;81.00
1091;DHT22;534;48.704;9.122;2022-11-20T18:09:45;7.50;81.10
1091;DHT22;534;48.704;9.122;2022-11-20T18:12:12;7.50;81.30
1091;DHT22;534;48.704;9.122;2022-11-20T18:14:39;7.40;81.00
1091;DHT22;534;48.704;9.122;2022-11-20T18:17:09;7.40;80.80
1091;DHT22;534;48.704;9.122;2022-11-20T18:19:39;7.40;80.90
1091;DHT22;534;48.704;9.122;2022-11-20T18:22:06;7.40;81.40
1091;DHT22;534;48.704;9.122;2022-11-20T18:24:34;7.40;81.80
1091;DHT22;534;48.704;9.122;2022-11-20T18:27:01;7.40;81.90
1091;DHT22;534;48.704;9.122;2022-11-20T18:29:29;7.40;80.60
1091;DHT22;534;48.704;9.122;2022-11-20T18:31:57;7.40;80.60
1091;DHT22;534;48.704;9.122;2022-11-20T18:34:24;7.40;80.70
1091;DHT22;534;48.704;9.122;2022-11-20T18:36:52;7.20;81.10
1091;DHT22;534;48.704;9.122;2022-11-20T18:39:19;7.10;81.10
1091;DHT22;534;48.704;9.122;2022-11-20T18:41:46;7.10;81.80
1091;DHT22;534;48.704;9.122;2022-11-20T18:44:31;7.10;81.90
1091;DHT22;534;48.704;9.122;2022-11-20T18:47:19;7.20;82.20
1091;DHT22;534;48.704;9.122;2022-11-20T18:49:48;7.20;82.20
1091;DHT22;534;48.704;9.122;2022-11-20T18:52:21;7.20;82.10
1091;DHT22;534;48.704;9.122;2022-11-20T18:54:48;7.40;82.00
1091;DHT22;534;48.704;9.122;2022-11-20T18:57:16;7.30;82.00
1091;DHT22;534;48.704;9.122;2022-11-20T18:59:43;7.10;82.60
1091;DHT22;534;48.704;9.122;2022-11-20T19:02:11;7.10;83.10
1091;DHT22;534;48.704;9.122;2022-11-20T19:04:38;7.00;83.40
1091;DHT22;534;48.704;9.122;2022-11-20T19:07:05;6.90;84.00
1091;DHT22;534;48.704;9.122;2022-11-20T19:09:33;6.90;84.00
1091;DHT22;534;48.704;9.122;2022-11-20T19:11:59;6.90;84.10
1091;DHT22;534;48.704;9.122;2022-11-20T19:14:26;6.80;84.80
1091;DHT22;534;48.704;9.122;2022-11-20T19:16:53;6.80;84.80
1091;DHT22;534;48.704;9.122;2022-11-20T19:19:20;6.80;85.40
1091;DHT22;534;48.704;9.122;2022-11-20T19:21:46;6.70;84.80
1091;DHT22;534;48.704;9.122;2022-11-20T19:24:13;6.70;85.30
1091;DHT22;534;48.704;9.122;2022-11-20T19:26:41;6.80;85.30
1091;DHT22;534;48.704;9.122;2022-11-20T19:29:11;6.80;85.50
1091;DHT22;534;48.704;9.122;2022-11-20T19:31:39;6.90;84.50
1091;DHT22;534;48.704;9.122;2022-11-20T19:34:05;6.90;84.40
1091;DHT22;534;48.704;9.122;2022-11-20T19:36:33;6.90;84.70
1091;DHT22;534;48.704;9.122;2022-11-20T19:39:01;6.70;83.80
1091;DHT22;534;48.704;9.122;2022-11-20T19:41:31;6.60;83.10
1091;DHT22;534;48.704;9.122;2022-11-20T19:44:01;6.40;83.70
1091;DHT22;534;48.704;9.122;2022-11-20T19:46:30;6.30;83.80
1091;DHT22;534;48.704;9.122;2022-11-20T19:48:57;6.30;84.30
1091;DHT22;534;48.704;9.122;2022-11-20T19:51:26;6.20;84.30
1091;DHT22;534;48.704;9.122;2022-11-20T19:53:54;6.10;84.90
1091;DHT22;534;48.704;9.122;2022-11-20T19:56:21;6.20;85.00
1091;DHT22;534;48.704;9.122;2022-11-20T19:58:48;6.20;85.30
1091;DHT22;534;48.704;9.122;2022-11-20T20:01:18;6.20;84.90
1091;DHT22;534;48.704;9.122;2022-11-20T20:03:46;6.10;85.00
1091;DHT22;534;48.704;9.122;2022-11-20T20:06:15;6.10;84.90
1091;DHT22;534;48.704;9.122;2022-11-20T20:08:43;6.10;85.70
1091;DHT22;534;48.704;9.122;2022-11-20T20:11:13;6.00;85.50
1091;DHT22;534;48.704;9.122;2022-11-20T20:13:41;5.90;85.10
1091;DHT22;534;48.704;9.122;2022-11-20T20:16:08;5.80;85.50
1091;DHT22;534;48.704;9.122;2022-11-20T20:18:36;5.70;86.00
1091;DHT22;534;48.704;9.122;2022-11-20T20:21:04;5.70;87.00
1091;DHT22;534;48.704;9.122;2022-11-20T20:23:31;5.70;86.50
1091;DHT22;534;48.704;9.122;2022-11-20T20:25:58;5.60;86.80
1091;DHT22;534;48.704;9.122;2022-11-20T20:28:26;5.60;87.30
1091;DHT22;534;48.704;9.122;2022-11-20T20:30:53;5.50;87.20
1091;DHT22;534;48.704;9.122;2022-11-20T20:33:20;5.60;87.20
1091;DHT22;534;48.704;9.122;2022-11-20T20:35:49;5.60;87.30
1091;DHT22;534;48.704;9.122;2022-11-20T20:38:16;5.70;87.30
1091;DHT22;534;48.704;9.122;2022-11-20T20:40:46;5.70;87.60
1091;DHT22;534;48.704;9.122;2022-11-20T20:43:13;5.80;87.20
1091;DHT22;534;48.704;9.122;2022-11-20T20:45:44;5.70;87.30
1091;DHT22;534;48.704;9.122;2022-11-20T20:48:12;5.70;87.10
1091;DHT22;534;48.704;9.122;2022-11-20T20:50:39;5.70;87.50
1091;DHT22;534;48.704;9.122;2022-11-20T20:53:07;5.70;87.90